Time;durP1;ratioP1;P1;durP2;ratioP2;P2;SDS_P1;SDS_P2;PMS_P1;PMS_P2;Temp;Humidity;BMP_temperature;BMP_pressure;BME280_temperature;BME280_humidity;BME280_pressure;Samples;Min_cycle;Max_cycle;Signal;HPM_P1;HPM_P2
2023/09/04 00:00:41;;;;;;;7.22;4.88;;;14.20;99.90;;;;;;4994596;28;20033;-67
2023/09/04 00:03:07;;;;;;;7.22;4.68;;;14.20;99.90;;;;;;4994674;28;20040;-67
2023/09/04 00:05:33;;;;;;;5.38;3.88;;;14.30;99.90;;;;;;4996705;28;20120;-66
2023/09/04 00:07:59;;;;;;;6.70;5.05;;;14.40;99.90;;;;;;4993755;28;20109;-66
2023/09/04 00:10:25;;;;;;;6.75;4.72;;;14.40;99.90;;;;;;4993927;28;20547;-65
2023/09/04 00:12:51;;;;;;;6.90;4.28;;;14.40;99.90;;;;;;4992602;28;20524;-66
2023/09/04 00:15:16;;;;;;;7.72;4.95;;;14.30;99.90;;;;;;4991990;28;20048;-67
2023/09/04 00:17:42;;;;;;;5.82;4.53;;;14.30;99.90;;;;;;4992246;28;20069;-66
2023/09/04 00:20:11;;;;;;;7.32;4.82;;;14.20;99.90;;;;;;4993201;28;20034;-66
2023/09/04 00:22:36;;;;;;;6.20;4.85;;;14.20;99.90;;;;;;4993846;28;20030;-65
2023/09/04 00:25:02;;;;;;;15.00;4.80;;;14.10;99.90;;;;;;4992499;28;20036;-66
2023/09/04 00:27:27;;;;;;;11.60;5.35;;;14.10;99.90;;;;;;4991991;28;20108;-66
2023/09/04 00:29:53;;;;;;;11.05;5.00;;;14.00;99.90;;;;;;4994011;28;20699;-65
2023/09/04 00:32:19;;;;;;;14.00;5.50;;;14.00;99.90;;;;;;4995168;28;20045;-66
2023/09/04 00:34:44;;;;;;;10.25;5.35;;;14.00;99.90;;;;;;4994025;28;20460;-65
2023/09/04 00:37:10;;;;;;;6.70;5.40;;;14.00;99.90;;;;;;4991325;28;20168;-66
2023/09/04 00:39:36;;;;;;;7.72;5.50;;;13.90;99.90;;;;;;4975849;28;20466;-65
2023/09/04 00:42:02;;;;;;;6.72;5.22;;;13.90;99.90;;;;;;4993628;28;20122;-66
2023/09/04 00:44:27;;;;;;;9.45;5.15;;;13.90;99.90;;;;;;4993727;28;20034;-62
2023/09/04 00:46:53;;;;;;;7.63;5.13;;;13.90;99.90;;;;;;4991331;28;20124;-66
2023/09/04 00:49:19;;;;;;;6.50;5.10;;;13.80;99.90;;;;;;4995077;28;20403;-66
2023/09/04 00:51:46;;;;;;;12.32;5.65;;;13.80;99.90;;;;;;4996537;28;20026;-65
2023/09/04 00:54:14;;;;;;;10.20;5.00;;;13.80;99.90;;;;;;4981843;28;20088;-66
2023/09/04 00:56:40;;;;;;;8.00;5.47;;;13.80;99.90;;;;;;4995555;28;20044;-66
2023/09/04 00:59:06;;;;;;;8.13;5.43;;;13.80;99.90;;;;;;4994384;28;20037;-66
2023/09/04 01:01:32;;;;;;;11.35;5.15;;;13.70;99.90;;;;;;4994104;28;20034;-67
2023/09/04 01:03:57;;;;;;;8.20;4.75;;;13.70;99.90;;;;;;4991808;28;20040;-66
2023/09/04 01:06:23;;;;;;;7.00;4.05;;;13.70;99.90;;;;;;4995400;28;20982;-66
2023/09/04 01:08:49;;;;;;;6.72;5.00;;;13.70;99.90;;;;;;4996842;28;20040;-66
2023/09/04 01:11:20;;;;;;;7.47;4.93;;;13.60;99.90;;;;;;4994871;28;20100;-65
2023/09/04 01:13:57;;;;;;;8.13;5.28;;;13.60;99.90;;;;;;4994167;28;20152;-66
2023/09/04 01:16:23;;;;;;;6.40;4.80;;;13.60;99.90;;;;;;4992575;28;20030;-66
2023/09/04 01:18:50;;;;;;;6.80;4.82;;;13.60;99.90;;;;;;4994126;28;20088;-66
2023/09/04 01:21:16;;;;;;;8.85;4.72;;;13.60;99.90;;;;;;4993808;28;20022;-66
2023/09/04 01:23:42;;;;;;;6.28;5.05;;;13.60;99.90;;;;;;4992469;28;20037;-66
2023/09/04 01:26:25;;;;;;;8.50;5.22;;;13.60;99.90;;;;;;4994090;28;20503;-66
2023/09/04 01:29:00;;;;;;;6.18;4.53;;;13.60;99.90;;;;;;4998926;28;20030;-67
2023/09/04 01:31:46;;;;;;;9.88;4.78;;;13.60;99.90;;;;;;4994637;28;20060;-66
2023/09/04 01:34:19;;;;;;;6.72;4.10;;;13.60;99.90;;;;;;4993772;28;20513;-65
2023/09/04 01:36:46;;;;;;;5.82;3.92;;;13.60;99.90;;;;;;4995944;28;20037;-66
2023/09/04 01:39:12;;;;;;;4.65;3.90;;;13.50;99.90;;;;;;4972905;28;20054;-67
2023/09/04 01:41:41;;;;;;;9.73;4.70;;;13.50;99.90;;;;;;4995459;28;20022;-67
2023/09/04 01:44:07;;;;;;;8.98;4.80;;;13.50;99.90;;;;;;4998263;28;20022;-65
2023/09/04 01:46:33;;;;;;;8.70;5.20;;;13.50;99.90;;;;;;4995644;28;20025;-66
2023/09/04 01:48:59;;;;;;;7.50;4.68;;;13.50;99.90;;;;;;4994572;28;20093;-66
2023/09/04 01:51:24;;;;;;;7.93;4.57;;;13.50;99.90;;;;;;4994902;28;20034;-66
2023/09/04 01:53:50;;;;;;;9.75;5.57;;;13.50;99.90;;;;;;4995411;28;20027;-66
2023/09/04 01:56:15;;;;;;;7.63;4.65;;;13.50;99.90;;;;;;4990996;28;20065;-66
2023/09/04 01:58:41;;;;;;;10.82;4.35;;;13.40;99.90;;;;;;4996275;28;20022;-66
2023/09/04 02:01:06;;;;;;;8.07;4.93;;;13.40;99.90;;;;;;4979014;28;20080;-66
2023/09/04 02:03:33;;;;;;;12.07;5.30;;;13.40;99.90;;;;;;4996129;28;20035;-67
2023/09/04 02:05:58;;;;;;;6.25;4.38;;;13.40;99.90;;;;;;4977710;28;20399;-67
2023/09/04 02:08:24;;;;;;;6.00;4.93;;;13.40;99.90;;;;;;4994050;28;20037;-66
2023/09/04 02:10:50;;;;;;;11.48;4.65;;;13.50;99.90;;;;;;4995655;28;20022;-66
2023/09/04 02:13:15;;;;;;;5.32;4.03;;;13.60;99.90;;;;;;4999171;28;20399;-66
2023/09/04 02:15:41;;;;;;;4.60;3.75;;;13.70;99.90;;;;;;5000282;28;20085;-67
2023/09/04 02:18:07;;;;;;;5.05;3.80;;;13.80;99.90;;;;;;4998583;28;20419;-67
2023/09/04 02:20:32;;;;;;;6.63;4.03;;;13.90;99.90;;;;;;4994915;28;20049;-66
2023/09/04 02:22:58;;;;;;;8.45;3.85;;;14.00;99.90;;;;;;4997368;28;20030;-66
2023/09/04 02:25:25;;;;;;;5.78;3.60;;;14.00;99.90;;;;;;4976696;28;20045;-67
2023/09/04 02:27:51;;;;;;;4.95;3.75;;;13.90;99.90;;;;;;4977045;28;20439;-66
2023/09/04 02:30:17;;;;;;;7.72;3.80;;;13.90;99.90;;;;;;4995097;28;20037;-66
2023/09/04 02:32:43;;;;;;;7.82;3.50;;;13.80;99.90;;;;;;4995508;28;20030;-66
2023/09/04 02:35:09;;;;;;;6.85;3.85;;;13.80;99.90;;;;;;4997427;28;20058;-66
2023/09/04 02:37:35;;;;;;;4.32;3.10;;;13.80;99.90;;;;;;4979787;28;20069;-65
2023/09/04 02:40:01;;;;;;;5.75;3.72;;;13.80;99.90;;;;;;4980691;28;20062;-65
2023/09/04 02:42:29;;;;;;;5.25;3.75;;;13.70;99.90;;;;;;4997038;28;20061;-65
2023/09/04 02:44:54;;;;;;;3.85;3.45;;;13.70;99.90;;;;;;4995529;28;20112;-66
2023/09/04 02:47:20;;;;;;;11.00;3.95;;;13.70;99.90;;;;;;5002359;28;20129;-66
2023/09/04 02:49:46;;;;;;;6.43;3.42;;;13.70;99.90;;;;;;4994966;28;20033;-67
2023/09/04 02:52:11;;;;;;;5.22;3.35;;;13.80;99.90;;;;;;4994379;28;20088;-66
2023/09/04 02:54:37;;;;;;;5.25;3.08;;;13.80;99.90;;;;;;4995842;28;20030;-66
2023/09/04 02:57:03;;;;;;;4.28;3.55;;;13.90;99.90;;;;;;4997335;28;20385;-66
2023/09/04 02:59:28;;;;;;;4.72;3.60;;;13.90;99.90;;;;;;4995422;28;20026;-66
2023/09/04 03:01:54;;;;;;;6.03;3.50;;;13.90;99.90;;;;;;5004316;28;20034;-66
2023/09/04 03:04:20;;;;;;;9.65;4.10;;;13.80;99.90;;;;;;5012983;28;20057;-65
2023/09/04 03:06:45;;;;;;;5.75;3.65;;;13.70;99.90;;;;;;5000969;28;20037;-66
2023/09/04 03:09:11;;;;;;;4.80;3.30;;;13.60;99.90;;;;;;5000793;28;20475;-66
2023/09/04 03:11:36;;;;;;;4.78;3.45;;;13.60;99.90;;;;;;4999872;28;20026;-66
2023/09/04 03:14:02;;;;;;;7.65;3.13;;;13.60;99.90;;;;;;4996076;28;20039;-66
2023/09/04 03:16:28;;;;;;;7.10;3.67;;;13.50;99.90;;;;;;4979382;28;20117;-68
2023/09/04 03:18:55;;;;;;;6.88;3.63;;;13.60;99.90;;;;;;4998656;28;20097;-66
2023/09/04 03:21:20;;;;;;;8.80;3.75;;;13.60;99.90;;;;;;4999941;28;20036;-65
2023/09/04 03:23:47;;;;;;;7.68;3.33;;;13.60;99.90;;;;;;4997535;28;21213;-66
2023/09/04 03:26:13;;;;;;;4.22;3.05;;;13.60;99.90;;;;;;4995620;28;20029;-65
2023/09/04 03:28:39;;;;;;;5.15;3.03;;;13.60;99.90;;;;;;4995401;28;20521;-66
2023/09/04 03:31:04;;;;;;;5.93;3.90;;;13.60;99.90;;;;;;4995663;28;20030;-66
2023/09/04 03:33:31;;;;;;;4.82;3.22;;;13.60;99.90;;;;;;4994412;28;20476;-65
2023/09/04 03:35:57;;;;;;;3.95;3.00;;;13.50;99.90;;;;;;4994960;28;20040;-66
2023/09/04 03:38:23;;;;;;;5.05;3.00;;;13.40;99.90;;;;;;4962062;28;20049;-66
2023/09/04 03:40:49;;;;;;;4.35;3.00;;;13.40;99.90;;;;;;4995355;28;20132;-66
2023/09/04 03:43:15;;;;;;;4.57;3.13;;;13.40;99.90;;;;;;4996061;28;20538;-65
2023/09/04 03:45:40;;;;;;;3.35;2.85;;;13.40;99.90;;;;;;4994369;28;21186;-66
2023/09/04 03:48:06;;;;;;;4.35;2.70;;;13.30;99.90;;;;;;4997878;28;20030;-66
2023/09/04 03:50:33;;;;;;;5.18;3.20;;;13.20;99.90;;;;;;4997900;28;20026;-65
2023/09/04 03:52:59;;;;;;;3.85;2.72;;;13.20;99.90;;;;;;4995922;28;20030;-66
2023/09/04 03:55:25;;;;;;;5.22;3.10;;;13.20;99.90;;;;;;4995450;28;20037;-66
2023/09/04 03:57:51;;;;;;;7.47;3.30;;;13.10;99.90;;;;;;4995692;28;20030;-66
2023/09/04 04:00:18;;;;;;;4.05;2.90;;;13.10;99.90;;;;;;4976139;28;20052;-66
2023/09/04 04:02:46;;;;;;;5.10;3.65;;;13.10;99.90;;;;;;4994448;28;20033;-66
2023/09/04 04:05:13;;;;;;;5.25;2.88;;;13.10;99.90;;;;;;4997744;28;20029;-65
2023/09/04 04:07:39;;;;;;;4.13;3.15;;;13.00;99.90;;;;;;4993580;28;20026;-65
2023/09/04 04:10:06;;;;;;;4.95;3.22;;;13.00;99.90;;;;;;4996753;28;20038;-66
2023/09/04 04:12:32;;;;;;;5.82;2.72;;;12.90;99.90;;;;;;4995708;28;20026;-66
2023/09/04 04:14:58;;;;;;;10.57;3.78;;;12.90;99.90;;;;;;4995122;28;20121;-66
2023/09/04 04:17:26;;;;;;;5.50;3.47;;;12.80;99.90;;;;;;4997048;28;20030;-66
2023/09/04 04:19:53;;;;;;;4.05;3.08;;;12.70;99.90;;;;;;4996134;28;20025;-66
2023/09/04 04:22:20;;;;;;;9.57;3.92;;;12.60;99.90;;;;;;4993496;28;20622;-66
2023/09/04 04:24:46;;;;;;;6.28;4.18;;;12.60;99.90;;;;;;4993336;28;20034;-66
2023/09/04 04:27:12;;;;;;;6.55;3.80;;;12.70;99.90;;;;;;4996869;28;20034;-66
2023/09/04 04:29:38;;;;;;;4.13;3.35;;;12.70;99.90;;;;;;4997970;28;20058;-66
2023/09/04 04:32:05;;;;;;;6.35;4.05;;;12.70;99.90;;;;;;4993423;28;20041;-65
2023/09/04 04:34:31;;;;;;;6.90;3.58;;;12.70;99.90;;;;;;4995960;28;20755;-64
2023/09/04 04:36:56;;;;;;;4.65;3.05;;;12.70;99.90;;;;;;4994114;28;20033;-65
2023/09/04 04:39:22;;;;;;;7.40;3.80;;;12.80;99.90;;;;;;4980860;28;20053;-65
2023/09/04 04:41:48;;;;;;;5.63;3.45;;;12.80;99.90;;;;;;4995690;28;20037;-66
2023/09/04 04:44:14;;;;;;;4.65;3.30;;;12.80;99.90;;;;;;4993745;28;20060;-66
2023/09/04 04:46:40;;;;;;;5.15;3.80;;;12.80;99.90;;;;;;4994330;28;20034;-66
2023/09/04 04:49:06;;;;;;;6.22;2.92;;;12.80;99.90;;;;;;4994400;28;20034;-66
2023/09/04 04:51:32;;;;;;;5.35;3.95;;;12.70;99.90;;;;;;4997194;28;20033;-65
2023/09/04 04:53:58;;;;;;;7.45;4.03;;;12.70;99.90;;;;;;4994730;28;20034;-66
2023/09/04 04:56:24;;;;;;;5.60;3.63;;;12.60;99.90;;;;;;4993196;28;20621;-66
2023/09/04 04:58:50;;;;;;;7.28;3.67;;;12.60;99.90;;;;;;4995395;28;20061;-66
2023/09/04 05:01:15;;;;;;;4.80;3.85;;;12.60;99.90;;;;;;4993415;28;20026;-66
2023/09/04 05:03:41;;;;;;;5.40;3.63;;;12.60;99.90;;;;;;4992893;28;20033;-67
2023/09/04 05:06:07;;;;;;;6.85;3.70;;;12.70;99.90;;;;;;4995202;28;20073;-67
2023/09/04 05:08:33;;;;;;;5.40;3.65;;;12.70;99.90;;;;;;4998438;28;20514;-66
2023/09/04 05:11:04;;;;;;;4.15;3.30;;;12.80;99.90;;;;;;4994536;28;20311;-65
2023/09/04 05:13:30;;;;;;;5.38;3.38;;;12.80;99.90;;;;;;4995957;28;20710;-66
2023/09/04 05:15:56;;;;;;;5.63;3.45;;;12.90;99.90;;;;;;4995568;28;20042;-66
2023/09/04 05:18:22;;;;;;;8.38;3.70;;;12.90;99.90;;;;;;4991184;28;20030;-66
2023/09/04 05:20:48;;;;;;;8.48;4.50;;;13.00;99.90;;;;;;4991679;28;20026;-66
2023/09/04 05:23:14;;;;;;;4.15;2.95;;;13.20;99.90;;;;;;4995424;28;20034;-66
2023/09/04 05:25:50;;;;;;;4.72;2.95;;;13.20;99.90;;;;;;4997350;28;20026;-66
2023/09/04 05:28:16;;;;;;;5.47;3.30;;;13.40;99.90;;;;;;4994897;28;20034;-66
2023/09/04 05:30:42;;;;;;;4.03;2.60;;;13.50;99.90;;;;;;4992259;28;20030;-67
2023/09/04 05:33:08;;;;;;;12.38;3.10;;;13.60;99.90;;;;;;4995340;28;20037;-66
2023/09/04 05:35:33;;;;;;;5.72;2.83;;;13.70;99.90;;;;;;4994965;28;20153;-66
2023/09/04 05:37:59;;;;;;;4.78;2.40;;;13.80;99.90;;;;;;4977050;28;20058;-66
2023/09/04 05:40:25;;;;;;;6.47;2.88;;;13.90;99.90;;;;;;4994941;28;20413;-66
2023/09/04 05:42:51;;;;;;;3.05;2.28;;;14.00;99.90;;;;;;4994427;28;20042;-65
2023/09/04 05:45:17;;;;;;;4.03;2.50;;;14.10;99.90;;;;;;4979026;28;20038;-66
2023/09/04 05:47:43;;;;;;;3.85;2.45;;;14.30;99.90;;;;;;4996939;28;20038;-66
2023/09/04 05:50:10;;;;;;;6.80;2.80;;;14.40;99.90;;;;;;4998267;28;20133;-65
2023/09/04 05:52:36;;;;;;;4.45;2.72;;;14.50;99.90;;;;;;4996911;28;20030;-66
2023/09/04 05:55:02;;;;;;;3.65;2.42;;;14.70;99.90;;;;;;4998508;28;20895;-66
2023/09/04 05:57:28;;;;;;;2.78;2.30;;;14.90;99.90;;;;;;4997352;28;20616;-67
2023/09/04 05:59:54;;;;;;;2.58;1.85;;;15.30;99.90;;;;;;4994090;28;20030;-66
2023/09/04 06:02:20;;;;;;;2.80;1.83;;;15.80;99.90;;;;;;4992776;28;20037;-65
2023/09/04 06:04:45;;;;;;;5.90;2.13;;;16.20;99.90;;;;;;4996765;28;20042;-66
2023/09/04 06:07:11;;;;;;;2.78;2.10;;;16.40;99.90;;;;;;5000419;28;20022;-66
2023/09/04 06:09:40;;;;;;;3.75;1.75;;;16.50;99.90;;;;;;5001044;28;20030;-66
2023/09/04 06:12:08;;;;;;;4.20;2.08;;;16.60;99.90;;;;;;5002136;28;20037;-66
2023/09/04 06:14:34;;;;;;;8.00;1.95;;;16.80;99.90;;;;;;4999661;28;20030;-66
2023/09/04 06:17:00;;;;;;;2.95;2.15;;;16.90;99.90;;;;;;4993461;28;20056;-65
2023/09/04 06:19:25;;;;;;;7.25;2.08;;;17.10;99.90;;;;;;4996459;28;20034;-65
2023/09/04 06:21:51;;;;;;;5.93;3.65;;;17.10;99.90;;;;;;5000648;28;20114;-67
2023/09/04 06:24:17;;;;;;;4.15;2.33;;;17.10;99.90;;;;;;4998061;28;20030;-65
2023/09/04 06:26:42;;;;;;;7.03;2.17;;;17.10;99.90;;;;;;4999543;28;20037;-66
2023/09/04 06:29:08;;;;;;;4.43;2.05;;;17.30;99.90;;;;;;4997295;28;20037;-66
2023/09/04 06:31:33;;;;;;;4.15;1.98;;;17.30;99.90;;;;;;4996250;28;20080;-66
2023/09/04 06:33:59;;;;;;;5.13;2.10;;;17.40;99.90;;;;;;4998192;28;20058;-66
2023/09/04 06:36:25;;;;;;;7.18;2.05;;;17.40;99.90;;;;;;4999421;28;20492;-66
2023/09/04 06:38:50;;;;;;;2.35;1.38;;;17.40;99.90;;;;;;4977651;28;20053;-66
2023/09/04 06:41:16;;;;;;;2.08;1.75;;;17.60;99.90;;;;;;4994551;28;20029;-66
2023/09/04 06:43:41;;;;;;;7.50;1.90;;;17.60;99.90;;;;;;4997378;28;20014;-66
2023/09/04 06:46:07;;;;;;;4.63;1.50;;;17.70;99.90;;;;;;4995403;28;20046;-67
2023/09/04 06:48:32;;;;;;;2.55;1.55;;;18.20;99.90;;;;;;4996576;28;20033;-64
2023/09/04 06:51:00;;;;;;;4.10;1.42;;;18.40;99.90;;;;;;4998446;28;20065;-66
2023/09/04 06:53:26;;;;;;;5.72;1.48;;;18.90;99.90;;;;;;4999931;28;20745;-65
2023/09/04 06:55:52;;;;;;;4.53;1.10;;;19.60;99.90;;;;;;4996379;28;20042;-66
2023/09/04 06:58:17;;;;;;;2.88;1.20;;;20.80;99.90;;;;;;4996187;28;20038;-68
2023/09/04 07:00:43;;;;;;;2.80;1.52;;;22.10;99.90;;;;;;4992803;28;20566;-67
2023/09/04 07:03:09;;;;;;;2.40;1.35;;;23.50;99.90;;;;;;4996533;28;20040;-67
2023/09/04 07:05:34;;;;;;;2.70;1.58;;;24.20;99.90;;;;;;4995966;28;20061;-66
2023/09/04 07:08:00;;;;;;;2.38;1.10;;;25.50;97.10;;;;;;4995189;28;20042;-65
2023/09/04 07:10:26;;;;;;;3.45;1.52;;;25.70;94.70;;;;;;4998011;28;20037;-65
2023/09/04 07:12:51;;;;;;;2.55;1.33;;;25.90;94.20;;;;;;4999071;28;20026;-67
2023/09/04 07:15:17;;;;;;;2.17;1.40;;;26.70;92.40;;;;;;4994989;28;20030;-68
2023/09/04 07:17:43;;;;;;;3.85;1.40;;;26.80;92.10;;;;;;4996034;28;20026;-66
2023/09/04 07:20:10;;;;;;;5.47;1.30;;;27.40;89.50;;;;;;4995277;28;20072;-67
2023/09/04 07:22:36;;;;;;;2.15;1.30;;;27.40;90.50;;;;;;5001593;28;20077;-68
2023/09/04 07:25:04;;;;;;;4.50;1.20;;;27.10;90.00;;;;;;4998939;28;20033;-67
2023/09/04 07:27:30;;;;;;;2.78;1.55;;;27.70;85.00;;;;;;4997604;28;20026;-68
2023/09/04 07:29:55;;;;;;;1.90;1.05;;;27.10;86.00;;;;;;4996784;28;20022;-65
2023/09/04 07:32:21;;;;;;;1.60;1.17;;;27.50;86.10;;;;;;4996386;28;20029;-67
2023/09/04 07:34:47;;;;;;;2.80;1.38;;;27.40;85.10;;;;;;4994663;28;20034;-65
2023/09/04 07:37:13;;;;;;;1.52;1.00;;;27.80;84.40;;;;;;4996407;28;21407;-67
2023/09/04 07:39:39;;;;;;;2.20;1.10;;;28.00;81.20;;;;;;4973097;28;20488;-65
2023/09/04 07:42:05;;;;;;;3.08;1.27;;;27.70;81.80;;;;;;4996732;28;20677;-65
2023/09/04 07:44:31;;;;;;;2.72;1.20;;;27.60;84.80;;;;;;4995069;28;20034;-66
2023/09/04 07:46:57;;;;;;;2.28;1.42;;;27.40;85.40;;;;;;4994653;28;20045;-66
2023/09/04 07:49:23;;;;;;;2.15;1.10;;;27.50;82.90;;;;;;4998317;28;20030;-66
2023/09/04 07:51:50;;;;;;;2.20;1.30;;;28.10;82.30;;;;;;4998163;28;20037;-66
2023/09/04 07:54:16;;;;;;;1.98;1.10;;;27.60;81.80;;;;;;4998109;28;20030;-65
2023/09/04 07:56:42;;;;;;;3.80;1.20;;;27.90;83.80;;;;;;4995344;28;20041;-66
2023/09/04 07:59:07;;;;;;;1.92;1.40;;;28.40;79.00;;;;;;4996285;28;20069;-66
2023/09/04 08:01:33;;;;;;;5.28;1.40;;;28.60;82.20;;;;;;4994552;28;20507;-65
2023/09/04 08:04:01;;;;;;;3.45;1.38;;;28.50;79.70;;;;;;4977748;28;20029;-66
2023/09/04 08:06:27;;;;;;;2.42;1.27;;;28.20;82.60;;;;;;4995386;28;20063;-66
2023/09/04 08:08:52;;;;;;;2.50;1.30;;;28.20;80.20;;;;;;4994949;28;20026;-66
2023/09/04 08:11:18;;;;;;;2.95;1.63;;;28.10;79.20;;;;;;4994939;28;20037;-65
2023/09/04 08:13:44;;;;;;;3.33;1.10;;;27.60;80.10;;;;;;4994371;28;20034;-66
2023/09/04 08:16:09;;;;;;;5.15;1.30;;;28.10;82.10;;;;;;4995248;28;20034;-66
2023/09/04 08:18:35;;;;;;;2.13;1.27;;;28.40;80.40;;;;;;4995780;28;20057;-66
2023/09/04 08:21:01;;;;;;;1.58;1.25;;;28.50;79.50;;;;;;4993797;28;20033;-66
2023/09/04 08:23:27;;;;;;;1.85;1.20;;;28.40;80.00;;;;;;4994959;28;20034;-66
2023/09/04 08:25:59;;;;;;;2.13;1.30;;;28.20;82.70;;;;;;4996116;28;20042;-66
2023/09/04 08:28:25;;;;;;;2.50;1.42;;;29.00;79.40;;;;;;4996628;28;20041;-66
2023/09/04 08:30:50;;;;;;;3.63;1.60;;;29.10;78.70;;;;;;4997205;28;20027;-66
2023/09/04 08:33:16;;;;;;;1.95;1.20;;;28.80;80.10;;;;;;4993180;28;20080;-66
2023/09/04 08:35:41;;;;;;;3.30;1.40;;;29.40;77.30;;;;;;4995200;28;20095;-67
2023/09/04 08:38:07;;;;;;;2.08;1.33;;;29.30;77.30;;;;;;4979875;28;20496;-66
2023/09/04 08:40:34;;;;;;;1.98;1.60;;;29.70;78.90;;;;;;4995967;28;20479;-66
2023/09/04 08:43:00;;;;;;;4.82;1.50;;;30.00;78.40;;;;;;4993401;28;20057;-66
2023/09/04 08:45:26;;;;;;;2.42;1.48;;;30.20;76.60;;;;;;4993942;28;20519;-67
2023/09/04 08:47:54;;;;;;;2.20;1.27;;;30.40;75.30;;;;;;4997470;28;20021;-67
2023/09/04 08:50:21;;;;;;;3.25;1.25;;;30.10;75.50;;;;;;4998096;28;20040;-67
2023/09/04 08:52:48;;;;;;;2.25;1.20;;;29.80;75.00;;;;;;4996177;28;20104;-66
2023/09/04 08:55:15;;;;;;;6.60;1.65;;;30.70;75.10;;;;;;4996924;28;20045;-67
2023/09/04 08:57:42;;;;;;;2.22;1.45;;;30.70;76.40;;;;;;4994280;28;20038;-67
2023/09/04 09:00:10;;;;;;;6.68;1.30;;;30.30;74.60;;;;;;4995751;28;20366;-66
2023/09/04 09:02:38;;;;;;;2.40;1.42;;;30.50;74.90;;;;;;4976612;28;20025;-66
2023/09/04 09:05:04;;;;;;;1.40;1.20;;;30.80;73.80;;;;;;4997375;28;20076;-66
2023/09/04 09:07:30;;;;;;;3.17;1.73;;;30.40;75.20;;;;;;4991729;28;20042;-66
2023/09/04 09:10:02;;;;;;;3.42;1.48;;;30.20;74.50;;;;;;4994364;28;20049;-66
2023/09/04 09:12:28;;;;;;;2.72;1.48;;;30.50;76.30;;;;;;4993162;28;20403;-66
2023/09/04 09:14:57;;;;;;;2.75;1.70;;;30.80;76.30;;;;;;4992344;28;20101;-66
2023/09/04 09:17:23;;;;;;;2.53;1.60;;;30.60;75.70;;;;;;4996560;28;21419;-67
2023/09/04 09:19:49;;;;;;;2.28;1.30;;;30.20;74.80;;;;;;4997964;28;20030;-66
2023/09/04 09:22:22;;;;;;;4.07;1.70;;;30.10;77.10;;;;;;4997091;28;20065;-66
2023/09/04 09:24:59;;;;;;;1.95;1.50;;;30.50;76.10;;;;;;4980239;28;20038;-66
2023/09/04 09:27:30;;;;;;;2.90;1.60;;;30.30;78.40;;;;;;4983208;28;20018;-67
2023/09/04 09:29:57;;;;;;;3.25;1.42;;;29.90;73.90;;;;;;5001048;28;20023;-66
2023/09/04 09:32:27;;;;;;;4.63;1.70;;;29.70;73.50;;;;;;4999787;28;20140;-66
2023/09/04 09:34:54;;;;;;;3.17;1.40;;;29.70;74.60;;;;;;5000764;28;20026;-65
2023/09/04 09:37:25;;;;;;;2.28;1.58;;;29.10;75.30;;;;;;4979535;28;20228;-67
2023/09/04 09:39:50;;;;;;;2.15;1.42;;;28.90;76.70;;;;;;4968914;28;20051;-67
2023/09/04 09:42:16;;;;;;;2.58;1.60;;;29.10;78.10;;;;;;4979549;28;20033;-66
2023/09/04 09:44:42;;;;;;;2.10;1.70;;;28.90;77.90;;;;;;4979925;28;20034;-66
2023/09/04 09:47:10;;;;;;;2.42;1.60;;;29.10;79.40;;;;;;4978248;28;20089;-66
2023/09/04 09:49:36;;;;;;;3.22;1.75;;;29.20;77.00;;;;;;4981854;28;20517;-67
2023/09/04 09:52:06;;;;;;;5.78;1.80;;;29.40;75.70;;;;;;4976880;28;20027;-66
2023/09/04 09:54:35;;;;;;;3.28;1.52;;;28.90;77.50;;;;;;4978162;28;20672;-66
2023/09/04 09:57:03;;;;;;;4.07;1.60;;;29.00;74.60;;;;;;4978682;28;20034;-67
2023/09/04 09:59:32;;;;;;;2.85;1.40;;;28.50;77.80;;;;;;4979736;28;20204;-66
2023/09/04 10:01:58;;;;;;;2.53;1.75;;;28.20;79.90;;;;;;4979464;28;20121;-66
2023/09/04 10:04:25;;;;;;;2.53;1.58;;;27.80;80.70;;;;;;4977806;28;20388;-67
2023/09/04 10:06:52;;;;;;;2.70;1.65;;;27.70;81.30;;;;;;4979230;28;20088;-66
2023/09/04 10:09:22;;;;;;;2.47;1.52;;;27.50;82.00;;;;;;4977418;28;20157;-66
2023/09/04 10:11:57;;;;;;;4.70;1.80;;;27.30;80.70;;;;;;4980811;28;20018;-65
2023/09/04 10:14:32;;;;;;;2.67;1.52;;;27.20;82.00;;;;;;4981669;28;20048;-65
2023/09/04 10:17:00;;;;;;;1.73;1.60;;;26.70;82.30;;;;;;4977810;28;20513;-65
2023/09/04 10:19:30;;;;;;;2.33;1.48;;;26.50;81.80;;;;;;4977567;28;20038;-65
2023/09/04 10:22:01;;;;;;;3.92;1.65;;;26.20;83.60;;;;;;4978726;28;20396;-66
2023/09/04 10:24:45;;;;;;;2.50;1.45;;;26.00;83.00;;;;;;4979080;28;20036;-65
2023/09/04 10:27:13;;;;;;;3.63;1.67;;;26.00;85.90;;;;;;4977945;28;20155;-65
2023/09/04 10:29:46;;;;;;;3.45;1.50;;;25.90;86.00;;;;;;4977194;28;20504;-66
2023/09/04 10:32:13;;;;;;;2.65;1.58;;;25.70;87.50;;;;;;4976361;28;20542;-65
2023/09/04 10:34:40;;;;;;;3.47;1.60;;;25.50;85.10;;;;;;4978388;28;20045;-66
2023/09/04 10:37:10;;;;;;;2.42;1.55;;;25.70;85.70;;;;;;4976808;28;20043;-65
2023/09/04 10:39:36;;;;;;;3.45;1.60;;;25.70;86.60;;;;;;4960509;28;20051;-65
2023/09/04 10:42:03;;;;;;;2.33;1.67;;;25.60;87.60;;;;;;4981373;28;20057;-66
2023/09/04 10:44:48;;;;;;;2.05;1.48;;;25.60;88.50;;;;;;4976776;28;20113;-66
2023/09/04 10:47:15;;;;;;;5.05;1.63;;;25.80;87.80;;;;;;4975826;28;20076;-65
2023/09/04 10:49:42;;;;;;;1.77;1.40;;;25.90;86.00;;;;;;4978490;28;20038;-66
2023/09/04 10:52:08;;;;;;;1.70;1.33;;;25.50;86.30;;;;;;4975765;28;20519;-65
2023/09/04 10:54:33;;;;;;;4.72;1.52;;;25.60;87.90;;;;;;4978625;28;20053;-65
2023/09/04 10:57:06;;;;;;;2.65;1.45;;;25.70;88.30;;;;;;4977441;28;20031;-66
2023/09/04 10:59:55;;;;;;;2.28;1.42;;;25.40;85.90;;;;;;4978526;28;20117;-66
2023/09/04 11:02:46;;;;;;;9.15;2.10;;;25.30;84.50;;;;;;4974731;28;20553;-64
2023/09/04 11:05:13;;;;;;;5.25;1.50;;;25.40;87.60;;;;;;4974811;28;20054;-66
2023/09/04 11:07:38;;;;;;;3.75;1.80;;;25.30;90.10;;;;;;4975647;28;20027;-65
2023/09/04 11:10:32;;;;;;;2.80;1.67;;;25.30;87.90;;;;;;4980571;28;20515;-65
2023/09/04 11:12:58;;;;;;;1.70;1.30;;;25.30;89.20;;;;;;4974863;28;20030;-65
2023/09/04 11:15:26;;;;;;;4.38;1.80;;;25.40;90.00;;;;;;4977312;28;20046;-65
2023/09/04 11:17:52;;;;;;;2.38;1.40;;;25.50;90.40;;;;;;4975118;28;20038;-66
2023/09/04 11:20:23;;;;;;;2.65;1.65;;;25.50;88.90;;;;;;4978873;28;20038;-65
2023/09/04 11:22:49;;;;;;;3.80;1.83;;;25.30;90.00;;;;;;4978448;28;20029;-65
2023/09/04 11:25:15;;;;;;;2.10;1.65;;;25.20;90.80;;;;;;4974613;28;20039;-66
2023/09/04 11:27:46;;;;;;;1.77;1.38;;;25.20;91.80;;;;;;4974292;28;20074;-64
2023/09/04 11:30:13;;;;;;;3.08;1.50;;;25.00;89.30;;;;;;4976100;28;20026;-65
2023/09/04 11:32:39;;;;;;;8.88;2.00;;;25.10;91.20;;;;;;4974342;28;20039;-65
2023/09/04 11:35:11;;;;;;;3.15;1.60;;;25.20;91.80;;;;;;4976181;28;20049;-64
2023/09/04 11:37:37;;;;;;;2.67;1.38;;;25.40;91.30;;;;;;4979306;28;20039;-69
2023/09/04 11:40:06;;;;;;;2.22;1.33;;;25.40;91.00;;;;;;4957027;28;20101;-65
2023/09/04 11:42:32;;;;;;;2.15;1.50;;;25.50;90.50;;;;;;4973793;28;20034;-66
2023/09/04 11:44:58;;;;;;;3.15;1.70;;;25.60;89.80;;;;;;4991034;28;20038;-66
2023/09/04 11:47:24;;;;;;;1.60;1.23;;;25.50;88.00;;;;;;4988254;28;20468;-66
2023/09/04 11:49:50;;;;;;;2.83;1.40;;;25.60;89.70;;;;;;4973170;28;20089;-65
2023/09/04 11:52:17;;;;;;;1.88;1.42;;;25.60;88.60;;;;;;4978154;28;20034;-65
2023/09/04 11:54:43;;;;;;;1.98;1.52;;;25.60;87.00;;;;;;4977038;28;20802;-69
2023/09/04 11:57:09;;;;;;;2.88;1.38;;;25.60;85.90;;;;;;4973629;28;20041;-65
2023/09/04 11:59:37;;;;;;;1.40;1.17;;;25.50;86.00;;;;;;4971968;28;20555;-65
2023/09/04 12:02:04;;;;;;;1.25;1.15;;;25.40;81.20;;;;;;4971817;28;20105;-63
2023/09/04 12:04:33;;;;;;;1.75;1.20;;;25.50;84.10;;;;;;4975264;28;20644;-66
2023/09/04 12:07:03;;;;;;;1.48;1.00;;;25.50;83.20;;;;;;4977669;28;20031;-65
2023/09/04 12:09:30;;;;;;;2.63;1.42;;;25.40;80.90;;;;;;4993616;28;20044;-66
2023/09/04 12:11:56;;;;;;;2.20;1.30;;;25.30;82.30;;;;;;4977279;28;20092;-66
2023/09/04 12:14:22;;;;;;;5.13;1.45;;;25.30;83.50;;;;;;4986949;28;20161;-66
2023/09/04 12:16:48;;;;;;;1.90;1.08;;;25.20;81.10;;;;;;4974435;28;20117;-65
2023/09/04 12:19:16;;;;;;;1.48;0.90;;;25.30;82.20;;;;;;4971876;28;20557;-66
2023/09/04 12:21:43;;;;;;;1.92;1.13;;;25.30;77.70;;;;;;4974230;28;20034;-65
2023/09/04 12:24:15;;;;;;;3.40;1.17;;;25.20;79.80;;;;;;4975380;28;20030;-66
2023/09/04 12:26:42;;;;;;;1.88;1.20;;;25.30;78.80;;;;;;4975408;28;20106;-65
2023/09/04 12:29:11;;;;;;;2.47;1.23;;;25.30;80.10;;;;;;4975155;28;20057;-66
2023/09/04 12:31:37;;;;;;;3.15;1.60;;;25.20;81.50;;;;;;4973530;28;20031;-65
2023/09/04 12:34:04;;;;;;;2.20;1.27;;;25.20;81.10;;;;;;4973384;28;20733;-66
2023/09/04 12:36:31;;;;;;;5.15;1.65;;;25.20;82.10;;;;;;4975497;28;20057;-66
2023/09/04 12:38:57;;;;;;;2.03;1.00;;;25.20;80.90;;;;;;4957711;28;20047;-66
2023/09/04 12:41:23;;;;;;;3.25;1.40;;;25.20;77.60;;;;;;4972243;28;20081;-66
2023/09/04 12:43:48;;;;;;;5.03;1.40;;;25.20;79.80;;;;;;4972704;28;20033;-65